sensor_id;sensor_type;location;lat;lon;timestamp;P1;durP1;ratioP1;P2;durP2;ratioP2
10481;SDS011;5288;42.334;23.876;2023-07-29T00:00:03;4.53;;;4.13;;
10481;SDS011;5288;42.334;23.876;2023-07-29T00:02:33;6.40;;;4.30;;
10481;SDS011;5288;42.334;23.876;2023-07-29T00:05:00;11.57;;;4.40;;
10481;SDS011;5288;42.334;23.876;2023-07-29T00:07:27;7.50;;;3.40;;
10481;SDS011;5288;42.334;23.876;2023-07-29T00:09:54;4.90;;;3.73;;
10481;SDS011;5288;42.334;23.876;2023-07-29T00:12:20;4.10;;;3.70;;
10481;SDS011;5288;42.334;23.876;2023-07-29T00:14:47;4.10;;;3.70;;
10481;SDS011;5288;42.334;23.876;2023-07-29T00:17:14;3.93;;;3.53;;
10481;SDS011;5288;42.334;23.876;2023-07-29T00:19:43;4.33;;;3.93;;
10481;SDS011;5288;42.334;23.876;2023-07-29T00:22:11;4.00;;;3.60;;
10481;SDS011;5288;42.334;23.876;2023-07-29T00:24:39;7.07;;;3.80;;
10481;SDS011;5288;42.334;23.876;2023-07-29T00:27:06;4.67;;;3.50;;
10481;SDS011;5288;42.334;23.876;2023-07-29T00:29:33;8.00;;;4.00;;
10481;SDS011;5288;42.334;23.876;2023-07-29T00:32:00;4.27;;;3.87;;
10481;SDS011;5288;42.334;23.876;2023-07-29T00:34:27;4.00;;;3.60;;
10481;SDS011;5288;42.334;23.876;2023-07-29T00:36:55;7.23;;;4.17;;
10481;SDS011;5288;42.334;23.876;2023-07-29T00:39:22;4.20;;;3.80;;
10481;SDS011;5288;42.334;23.876;2023-07-29T00:41:49;4.30;;;4.00;;
10481;SDS011;5288;42.334;23.876;2023-07-29T00:44:16;5.53;;;3.90;;
10481;SDS011;5288;42.334;23.876;2023-07-29T00:46:43;5.60;;;3.93;;
10481;SDS011;5288;42.334;23.876;2023-07-29T00:49:13;5.67;;;3.67;;
10481;SDS011;5288;42.334;23.876;2023-07-29T00:51:40;4.23;;;3.67;;
10481;SDS011;5288;42.334;23.876;2023-07-29T00:54:08;4.00;;;3.70;;
10481;SDS011;5288;42.334;23.876;2023-07-29T00:56:35;4.43;;;4.00;;
10481;SDS011;5288;42.334;23.876;2023-07-29T00:59:03;6.17;;;4.07;;
10481;SDS011;5288;42.334;23.876;2023-07-29T01:01:30;4.83;;;3.87;;
10481;SDS011;5288;42.334;23.876;2023-07-29T01:03:57;3.80;;;3.40;;
10481;SDS011;5288;42.334;23.876;2023-07-29T01:06:27;3.60;;;3.30;;
10481;SDS011;5288;42.334;23.876;2023-07-29T01:09:02;4.00;;;3.60;;
10481;SDS011;5288;42.334;23.876;2023-07-29T01:11:35;4.30;;;3.90;;
10481;SDS011;5288;42.334;23.876;2023-07-29T01:14:11;3.80;;;3.50;;
10481;SDS011;5288;42.334;23.876;2023-07-29T01:16:46;4.47;;;3.70;;
10481;SDS011;5288;42.334;23.876;2023-07-29T01:19:22;4.53;;;4.13;;
10481;SDS011;5288;42.334;23.876;2023-07-29T01:22:04;5.97;;;4.07;;
10481;SDS011;5288;42.334;23.876;2023-07-29T01:24:35;4.70;;;4.27;;
10481;SDS011;5288;42.334;23.876;2023-07-29T01:27:02;4.53;;;3.80;;
10481;SDS011;5288;42.334;23.876;2023-07-29T01:29:30;4.63;;;4.03;;
10481;SDS011;5288;42.334;23.876;2023-07-29T01:31:59;10.60;;;4.67;;
10481;SDS011;5288;42.334;23.876;2023-07-29T01:34:41;5.03;;;3.57;;
10481;SDS011;5288;42.334;23.876;2023-07-29T01:37:16;8.07;;;4.23;;
10481;SDS011;5288;42.334;23.876;2023-07-29T01:39:50;4.90;;;4.13;;
10481;SDS011;5288;42.334;23.876;2023-07-29T01:42:19;4.10;;;3.70;;
10481;SDS011;5288;42.334;23.876;2023-07-29T01:44:47;5.37;;;3.90;;
10481;SDS011;5288;42.334;23.876;2023-07-29T01:47:14;4.87;;;4.27;;
10481;SDS011;5288;42.334;23.876;2023-07-29T01:49:41;6.20;;;4.57;;
10481;SDS011;5288;42.334;23.876;2023-07-29T01:52:08;5.13;;;4.63;;
10481;SDS011;5288;42.334;23.876;2023-07-29T01:54:34;4.63;;;4.10;;
10481;SDS011;5288;42.334;23.876;2023-07-29T01:57:03;8.17;;;5.00;;
10481;SDS011;5288;42.334;23.876;2023-07-29T01:59:30;5.17;;;4.17;;
10481;SDS011;5288;42.334;23.876;2023-07-29T02:01:57;16.33;;;5.07;;
10481;SDS011;5288;42.334;23.876;2023-07-29T02:04:24;6.67;;;4.30;;
10481;SDS011;5288;42.334;23.876;2023-07-29T02:06:51;6.40;;;4.10;;
10481;SDS011;5288;42.334;23.876;2023-07-29T02:09:18;4.73;;;4.33;;
10481;SDS011;5288;42.334;23.876;2023-07-29T02:11:46;4.53;;;4.13;;
10481;SDS011;5288;42.334;23.876;2023-07-29T02:14:14;5.40;;;4.80;;
10481;SDS011;5288;42.334;23.876;2023-07-29T02:16:41;11.23;;;4.50;;
10481;SDS011;5288;42.334;23.876;2023-07-29T02:19:09;7.83;;;4.17;;
10481;SDS011;5288;42.334;23.876;2023-07-29T02:21:36;5.70;;;4.50;;
10481;SDS011;5288;42.334;23.876;2023-07-29T02:24:03;7.33;;;4.93;;
10481;SDS011;5288;42.334;23.876;2023-07-29T02:26:30;5.10;;;4.60;;
10481;SDS011;5288;42.334;23.876;2023-07-29T02:28:57;7.27;;;4.57;;
10481;SDS011;5288;42.334;23.876;2023-07-29T02:31:26;4.70;;;4.27;;
10481;SDS011;5288;42.334;23.876;2023-07-29T02:33:53;4.90;;;4.50;;
10481;SDS011;5288;42.334;23.876;2023-07-29T02:36:25;4.97;;;4.50;;
10481;SDS011;5288;42.334;23.876;2023-07-29T02:39:00;5.90;;;4.77;;
10481;SDS011;5288;42.334;23.876;2023-07-29T02:41:28;7.60;;;4.50;;
10481;SDS011;5288;42.334;23.876;2023-07-29T02:43:55;4.93;;;4.43;;
10481;SDS011;5288;42.334;23.876;2023-07-29T02:46:21;6.43;;;5.23;;
10481;SDS011;5288;42.334;23.876;2023-07-29T02:48:50;7.07;;;4.80;;
10481;SDS011;5288;42.334;23.876;2023-07-29T02:51:17;5.27;;;4.37;;
10481;SDS011;5288;42.334;23.876;2023-07-29T02:53:44;4.47;;;4.07;;
10481;SDS011;5288;42.334;23.876;2023-07-29T02:56:11;5.83;;;4.47;;
10481;SDS011;5288;42.334;23.876;2023-07-29T02:58:38;4.50;;;4.00;;
10481;SDS011;5288;42.334;23.876;2023-07-29T03:01:06;6.83;;;4.80;;
10481;SDS011;5288;42.334;23.876;2023-07-29T03:03:33;4.63;;;4.23;;
10481;SDS011;5288;42.334;23.876;2023-07-29T03:06:02;7.40;;;4.47;;
10481;SDS011;5288;42.334;23.876;2023-07-29T03:08:30;4.40;;;4.07;;
10481;SDS011;5288;42.334;23.876;2023-07-29T03:10:57;4.80;;;4.40;;
10481;SDS011;5288;42.334;23.876;2023-07-29T03:13:24;5.17;;;4.70;;
10481;SDS011;5288;42.334;23.876;2023-07-29T03:15:51;4.83;;;4.43;;
10481;SDS011;5288;42.334;23.876;2023-07-29T03:18:18;4.60;;;4.20;;
10481;SDS011;5288;42.334;23.876;2023-07-29T03:20:45;7.37;;;4.23;;
10481;SDS011;5288;42.334;23.876;2023-07-29T03:23:13;5.43;;;4.93;;
10481;SDS011;5288;42.334;23.876;2023-07-29T03:25:40;6.83;;;4.30;;
10481;SDS011;5288;42.334;23.876;2023-07-29T03:28:07;7.93;;;4.70;;
10481;SDS011;5288;42.334;23.876;2023-07-29T03:30:34;19.57;;;5.03;;
10481;SDS011;5288;42.334;23.876;2023-07-29T03:33:02;19.37;;;4.97;;
10481;SDS011;5288;42.334;23.876;2023-07-29T03:35:29;16.40;;;5.47;;
10481;SDS011;5288;42.334;23.876;2023-07-29T03:37:56;13.73;;;4.90;;
10481;SDS011;5288;42.334;23.876;2023-07-29T03:40:25;9.50;;;4.67;;
10481;SDS011;5288;42.334;23.876;2023-07-29T03:42:52;14.03;;;4.67;;
10481;SDS011;5288;42.334;23.876;2023-07-29T03:45:19;20.80;;;6.40;;
10481;SDS011;5288;42.334;23.876;2023-07-29T03:47:46;18.90;;;7.47;;
10481;SDS011;5288;42.334;23.876;2023-07-29T03:50:12;14.67;;;5.10;;
10481;SDS011;5288;42.334;23.876;2023-07-29T03:52:39;8.90;;;5.67;;
10481;SDS011;5288;42.334;23.876;2023-07-29T03:55:07;13.07;;;6.50;;
10481;SDS011;5288;42.334;23.876;2023-07-29T03:57:35;16.10;;;5.77;;
10481;SDS011;5288;42.334;23.876;2023-07-29T04:00:03;9.97;;;5.67;;
10481;SDS011;5288;42.334;23.876;2023-07-29T04:02:31;6.93;;;5.03;;
10481;SDS011;5288;42.334;23.876;2023-07-29T04:04:57;8.23;;;5.40;;
10481;SDS011;5288;42.334;23.876;2023-07-29T04:07:24;10.10;;;5.77;;
10481;SDS011;5288;42.334;23.876;2023-07-29T04:09:51;6.40;;;5.80;;
10481;SDS011;5288;42.334;23.876;2023-07-29T04:12:18;6.07;;;4.77;;
10481;SDS011;5288;42.334;23.876;2023-07-29T04:14:48;7.97;;;4.87;;
10481;SDS011;5288;42.334;23.876;2023-07-29T04:17:15;7.97;;;4.80;;
10481;SDS011;5288;42.334;23.876;2023-07-29T04:19:42;6.67;;;5.40;;
10481;SDS011;5288;42.334;23.876;2023-07-29T04:22:08;5.87;;;5.37;;
10481;SDS011;5288;42.334;23.876;2023-07-29T04:24:35;8.93;;;5.23;;
10481;SDS011;5288;42.334;23.876;2023-07-29T04:27:04;7.33;;;4.63;;
10481;SDS011;5288;42.334;23.876;2023-07-29T04:29:31;5.90;;;5.30;;
10481;SDS011;5288;42.334;23.876;2023-07-29T04:31:59;7.10;;;4.80;;
10481;SDS011;5288;42.334;23.876;2023-07-29T04:34:26;6.00;;;4.60;;
10481;SDS011;5288;42.334;23.876;2023-07-29T04:36:53;7.90;;;5.23;;
10481;SDS011;5288;42.334;23.876;2023-07-29T04:39:20;15.87;;;5.80;;
10481;SDS011;5288;42.334;23.876;2023-07-29T04:41:48;5.97;;;4.60;;
10481;SDS011;5288;42.334;23.876;2023-07-29T04:44:15;5.30;;;4.80;;
10481;SDS011;5288;42.334;23.876;2023-07-29T04:46:42;8.60;;;5.00;;
10481;SDS011;5288;42.334;23.876;2023-07-29T04:49:10;6.07;;;4.50;;
10481;SDS011;5288;42.334;23.876;2023-07-29T04:51:37;4.23;;;3.67;;
10481;SDS011;5288;42.334;23.876;2023-07-29T04:54:04;5.33;;;4.50;;
10481;SDS011;5288;42.334;23.876;2023-07-29T04:56:31;13.03;;;4.70;;
10481;SDS011;5288;42.334;23.876;2023-07-29T04:58:58;4.93;;;4.43;;
10481;SDS011;5288;42.334;23.876;2023-07-29T05:01:25;7.13;;;4.40;;
10481;SDS011;5288;42.334;23.876;2023-07-29T05:03:52;7.73;;;4.47;;
10481;SDS011;5288;42.334;23.876;2023-07-29T05:06:20;4.50;;;4.10;;
10481;SDS011;5288;42.334;23.876;2023-07-29T05:08:47;8.93;;;4.63;;
10481;SDS011;5288;42.334;23.876;2023-07-29T05:11:14;6.97;;;4.10;;
10481;SDS011;5288;42.334;23.876;2023-07-29T05:13:41;5.13;;;4.63;;
10481;SDS011;5288;42.334;23.876;2023-07-29T05:16:09;5.73;;;4.37;;
10481;SDS011;5288;42.334;23.876;2023-07-29T05:18:36;6.77;;;5.23;;
10481;SDS011;5288;42.334;23.876;2023-07-29T05:21:03;5.70;;;4.50;;
10481;SDS011;5288;42.334;23.876;2023-07-29T05:23:31;7.47;;;4.20;;
10481;SDS011;5288;42.334;23.876;2023-07-29T05:25:58;5.00;;;4.27;;
10481;SDS011;5288;42.334;23.876;2023-07-29T05:28:25;5.13;;;4.63;;
10481;SDS011;5288;42.334;23.876;2023-07-29T05:30:52;5.60;;;4.60;;
10481;SDS011;5288;42.334;23.876;2023-07-29T05:33:19;5.30;;;4.23;;
10481;SDS011;5288;42.334;23.876;2023-07-29T05:35:46;7.10;;;4.07;;
10481;SDS011;5288;42.334;23.876;2023-07-29T05:38:13;8.90;;;4.47;;
10481;SDS011;5288;42.334;23.876;2023-07-29T05:40:41;4.77;;;4.33;;
10481;SDS011;5288;42.334;23.876;2023-07-29T05:43:08;5.07;;;4.23;;
10481;SDS011;5288;42.334;23.876;2023-07-29T05:45:36;4.30;;;3.90;;
10481;SDS011;5288;42.334;23.876;2023-07-29T05:48:03;5.10;;;4.13;;
10481;SDS011;5288;42.334;23.876;2023-07-29T05:50:30;6.30;;;4.30;;
10481;SDS011;5288;42.334;23.876;2023-07-29T05:52:57;4.40;;;4.00;;
10481;SDS011;5288;42.334;23.876;2023-07-29T05:55:24;4.83;;;4.43;;
10481;SDS011;5288;42.334;23.876;2023-07-29T05:57:52;4.47;;;4.13;;
10481;SDS011;5288;42.334;23.876;2023-07-29T06:00:20;5.00;;;4.20;;
10481;SDS011;5288;42.334;23.876;2023-07-29T06:02:47;5.10;;;4.50;;
10481;SDS011;5288;42.334;23.876;2023-07-29T06:05:14;4.87;;;4.33;;
10481;SDS011;5288;42.334;23.876;2023-07-29T06:07:41;6.30;;;3.53;;
10481;SDS011;5288;42.334;23.876;2023-07-29T06:10:10;6.00;;;3.50;;
10481;SDS011;5288;42.334;23.876;2023-07-29T06:12:38;3.53;;;3.23;;
10481;SDS011;5288;42.334;23.876;2023-07-29T06:15:06;5.87;;;3.57;;
10481;SDS011;5288;42.334;23.876;2023-07-29T06:17:34;5.13;;;3.30;;
10481;SDS011;5288;42.334;23.876;2023-07-29T06:20:01;7.03;;;3.67;;
10481;SDS011;5288;42.334;23.876;2023-07-29T06:22:28;12.83;;;3.90;;
10481;SDS011;5288;42.334;23.876;2023-07-29T06:24:55;3.70;;;3.07;;
10481;SDS011;5288;42.334;23.876;2023-07-29T06:27:22;3.80;;;3.47;;
10481;SDS011;5288;42.334;23.876;2023-07-29T06:29:50;9.40;;;3.70;;
10481;SDS011;5288;42.334;23.876;2023-07-29T06:32:18;9.40;;;3.80;;
10481;SDS011;5288;42.334;23.876;2023-07-29T06:34:45;5.97;;;3.57;;
10481;SDS011;5288;42.334;23.876;2023-07-29T06:37:12;7.43;;;3.77;;
10481;SDS011;5288;42.334;23.876;2023-07-29T06:39:39;4.37;;;3.30;;
10481;SDS011;5288;42.334;23.876;2023-07-29T06:42:06;7.67;;;3.73;;
10481;SDS011;5288;42.334;23.876;2023-07-29T06:44:33;11.00;;;4.23;;
10481;SDS011;5288;42.334;23.876;2023-07-29T06:47:00;10.50;;;3.67;;
10481;SDS011;5288;42.334;23.876;2023-07-29T06:49:28;7.53;;;3.47;;
10481;SDS011;5288;42.334;23.876;2023-07-29T06:51:55;7.33;;;3.37;;
10481;SDS011;5288;42.334;23.876;2023-07-29T06:54:24;4.93;;;3.17;;
10481;SDS011;5288;42.334;23.876;2023-07-29T06:56:51;8.03;;;3.13;;
10481;SDS011;5288;42.334;23.876;2023-07-29T06:59:18;7.53;;;3.77;;
10481;SDS011;5288;42.334;23.876;2023-07-29T07:01:45;7.10;;;3.30;;
10481;SDS011;5288;42.334;23.876;2023-07-29T07:04:12;6.53;;;4.00;;
10481;SDS011;5288;42.334;23.876;2023-07-29T07:06:40;7.50;;;4.07;;
10481;SDS011;5288;42.334;23.876;2023-07-29T07:09:07;4.23;;;3.30;;
10481;SDS011;5288;42.334;23.876;2023-07-29T07:11:34;3.70;;;2.97;;
10481;SDS011;5288;42.334;23.876;2023-07-29T07:14:01;4.00;;;3.00;;
10481;SDS011;5288;42.334;23.876;2023-07-29T07:16:28;4.80;;;3.00;;
10481;SDS011;5288;42.334;23.876;2023-07-29T07:18:55;3.73;;;2.57;;
10481;SDS011;5288;42.334;23.876;2023-07-29T07:21:23;14.53;;;3.13;;
10481;SDS011;5288;42.334;23.876;2023-07-29T07:23:51;3.83;;;2.83;;
10481;SDS011;5288;42.334;23.876;2023-07-29T07:26:18;5.20;;;3.00;;
10481;SDS011;5288;42.334;23.876;2023-07-29T07:28:45;6.33;;;3.20;;
10481;SDS011;5288;42.334;23.876;2023-07-29T07:31:12;3.80;;;3.00;;
10481;SDS011;5288;42.334;23.876;2023-07-29T07:33:38;4.43;;;2.87;;
10481;SDS011;5288;42.334;23.876;2023-07-29T07:36:05;4.23;;;2.60;;
10481;SDS011;5288;42.334;23.876;2023-07-29T07:38:32;7.00;;;2.80;;
10481;SDS011;5288;42.334;23.876;2023-07-29T07:41:01;5.23;;;2.90;;
10481;SDS011;5288;42.334;23.876;2023-07-29T07:43:27;5.03;;;2.40;;
10481;SDS011;5288;42.334;23.876;2023-07-29T07:45:57;7.50;;;3.00;;
10481;SDS011;5288;42.334;23.876;2023-07-29T07:48:25;3.27;;;2.53;;
10481;SDS011;5288;42.334;23.876;2023-07-29T07:50:52;3.40;;;3.10;;
10481;SDS011;5288;42.334;23.876;2023-07-29T07:53:18;4.33;;;2.93;;
10481;SDS011;5288;42.334;23.876;2023-07-29T07:55:46;3.40;;;2.63;;
10481;SDS011;5288;42.334;23.876;2023-07-29T07:58:14;3.80;;;2.80;;
10481;SDS011;5288;42.334;23.876;2023-07-29T08:00:41;4.37;;;2.70;;
10481;SDS011;5288;42.334;23.876;2023-07-29T08:03:08;10.05;;;2.60;;
10481;SDS011;5288;42.334;23.876;2023-07-29T08:05:35;2.75;;;2.55;;
10481;SDS011;5288;42.334;23.876;2023-07-29T08:08:02;7.80;;;2.53;;
10481;SDS011;5288;42.334;23.876;2023-07-29T08:10:29;5.00;;;2.70;;
10481;SDS011;5288;42.334;23.876;2023-07-29T08:12:56;2.50;;;2.30;;
10481;SDS011;5288;42.334;23.876;2023-07-29T08:15:24;3.05;;;2.75;;
10481;SDS011;5288;42.334;23.876;2023-07-29T08:17:51;3.22;;;2.80;;
10481;SDS011;5288;42.334;23.876;2023-07-29T08:20:18;3.40;;;3.10;;
10481;SDS011;5288;42.334;23.876;2023-07-29T08:22:45;5.57;;;2.13;;
10481;SDS011;5288;42.334;23.876;2023-07-29T08:25:12;8.75;;;2.60;;
10481;SDS011;5288;42.334;23.876;2023-07-29T08:27:39;4.63;;;3.30;;
10481;SDS011;5288;42.334;23.876;2023-07-29T08:30:07;3.88;;;2.95;;
10481;SDS011;5288;42.334;23.876;2023-07-29T08:32:36;2.78;;;2.58;;
10481;SDS011;5288;42.334;23.876;2023-07-29T08:35:03;5.03;;;2.55;;
10481;SDS011;5288;42.334;23.876;2023-07-29T08:37:30;4.65;;;3.53;;
10481;SDS011;5288;42.334;23.876;2023-07-29T08:39:58;3.67;;;2.67;;
10481;SDS011;5288;42.334;23.876;2023-07-29T08:42:26;3.17;;;2.88;;
10481;SDS011;5288;42.334;23.876;2023-07-29T08:44:55;2.78;;;2.40;;
10481;SDS011;5288;42.334;23.876;2023-07-29T08:47:23;2.70;;;2.50;;
10481;SDS011;5288;42.334;23.876;2023-07-29T08:49:52;4.03;;;2.67;;
10481;SDS011;5288;42.334;23.876;2023-07-29T08:52:20;3.47;;;2.88;;
10481;SDS011;5288;42.334;23.876;2023-07-29T08:54:48;2.58;;;2.38;;
10481;SDS011;5288;42.334;23.876;2023-07-29T08:57:15;2.92;;;2.60;;
10481;SDS011;5288;42.334;23.876;2023-07-29T08:59:42;2.80;;;2.60;;
10481;SDS011;5288;42.334;23.876;2023-07-29T09:02:10;2.88;;;2.40;;
10481;SDS011;5288;42.334;23.876;2023-07-29T09:04:37;3.05;;;2.60;;
10481;SDS011;5288;42.334;23.876;2023-07-29T09:07:05;3.67;;;2.45;;
10481;SDS011;5288;42.334;23.876;2023-07-29T09:09:33;2.92;;;2.40;;
10481;SDS011;5288;42.334;23.876;2023-07-29T09:12:00;5.40;;;2.85;;
10481;SDS011;5288;42.334;23.876;2023-07-29T09:14:27;14.07;;;3.40;;
10481;SDS011;5288;42.334;23.876;2023-07-29T09:16:54;3.50;;;2.15;;
10481;SDS011;5288;42.334;23.876;2023-07-29T09:19:24;2.20;;;2.00;;
10481;SDS011;5288;42.334;23.876;2023-07-29T09:21:52;4.30;;;2.42;;
10481;SDS011;5288;42.334;23.876;2023-07-29T09:24:20;4.20;;;2.60;;
10481;SDS011;5288;42.334;23.876;2023-07-29T09:26:50;3.67;;;2.33;;
10481;SDS011;5288;42.334;23.876;2023-07-29T09:29:21;6.18;;;3.00;;
10481;SDS011;5288;42.334;23.876;2023-07-29T09:31:49;6.32;;;3.58;;
10481;SDS011;5288;42.334;23.876;2023-07-29T09:34:16;4.40;;;2.42;;
10481;SDS011;5288;42.334;23.876;2023-07-29T09:36:43;4.13;;;2.70;;
10481;SDS011;5288;42.334;23.876;2023-07-29T09:39:10;4.20;;;2.25;;
10481;SDS011;5288;42.334;23.876;2023-07-29T09:41:39;5.57;;;2.70;;
10481;SDS011;5288;42.334;23.876;2023-07-29T09:44:06;6.03;;;2.72;;
10481;SDS011;5288;42.334;23.876;2023-07-29T09:46:34;8.63;;;2.70;;
10481;SDS011;5288;42.334;23.876;2023-07-29T09:49:02;3.75;;;2.47;;
10481;SDS011;5288;42.334;23.876;2023-07-29T09:51:30;4.13;;;2.38;;
10481;SDS011;5288;42.334;23.876;2023-07-29T09:53:57;4.68;;;2.38;;
10481;SDS011;5288;42.334;23.876;2023-07-29T09:56:24;3.40;;;2.40;;
10481;SDS011;5288;42.334;23.876;2023-07-29T09:58:55;2.67;;;2.47;;
10481;SDS011;5288;42.334;23.876;2023-07-29T10:01:22;6.63;;;2.63;;
10481;SDS011;5288;42.334;23.876;2023-07-29T10:03:50;3.75;;;2.35;;
10481;SDS011;5288;42.334;23.876;2023-07-29T10:06:18;4.35;;;2.20;;
10481;SDS011;5288;42.334;23.876;2023-07-29T10:08:46;4.57;;;2.30;;
10481;SDS011;5288;42.334;23.876;2023-07-29T10:11:15;2.50;;;2.30;;
10481;SDS011;5288;42.334;23.876;2023-07-29T10:13:45;4.13;;;2.53;;
10481;SDS011;5288;42.334;23.876;2023-07-29T10:16:14;3.10;;;2.40;;
10481;SDS011;5288;42.334;23.876;2023-07-29T10:18:41;2.58;;;2.38;;
10481;SDS011;5288;42.334;23.876;2023-07-29T10:21:09;4.30;;;2.50;;
10481;SDS011;5288;42.334;23.876;2023-07-29T10:23:40;4.50;;;2.28;;
10481;SDS011;5288;42.334;23.876;2023-07-29T10:26:11;3.70;;;2.20;;
10481;SDS011;5288;42.334;23.876;2023-07-29T10:28:40;2.38;;;2.17;;
10481;SDS011;5288;42.334;23.876;2023-07-29T10:31:14;2.77;;;2.20;;
10481;SDS011;5288;42.334;23.876;2023-07-29T10:33:42;3.42;;;3.10;;
10481;SDS011;5288;42.334;23.876;2023-07-29T10:36:10;3.22;;;2.60;;
10481;SDS011;5288;42.334;23.876;2023-07-29T10:38:37;3.30;;;2.15;;
10481;SDS011;5288;42.334;23.876;2023-07-29T10:41:04;2.53;;;2.00;;
10481;SDS011;5288;42.334;23.876;2023-07-29T10:43:32;4.40;;;2.50;;
10481;SDS011;5288;42.334;23.876;2023-07-29T10:48:43;3.22;;;2.47;;
10481;SDS011;5288;42.334;23.876;2023-07-29T10:51:24;2.40;;;2.20;;
10481;SDS011;5288;42.334;23.876;2023-07-29T10:53:54;4.78;;;2.30;;
10481;SDS011;5288;42.334;23.876;2023-07-29T10:56:29;2.47;;;2.17;;
10481;SDS011;5288;42.334;23.876;2023-07-29T10:58:59;2.70;;;2.30;;
10481;SDS011;5288;42.334;23.876;2023-07-29T11:01:52;4.32;;;2.67;;
10481;SDS011;5288;42.334;23.876;2023-07-29T11:04:24;2.53;;;2.30;;
10481;SDS011;5288;42.334;23.876;2023-07-29T11:10:01;3.28;;;2.33;;
10481;SDS011;5288;42.334;23.876;2023-07-29T11:12:36;3.45;;;2.20;;
10481;SDS011;5288;42.334;23.876;2023-07-29T11:15:23;4.32;;;2.05;;
10481;SDS011;5288;42.334;23.876;2023-07-29T11:17:53;2.60;;;2.15;;
10481;SDS011;5288;42.334;23.876;2023-07-29T11:20:21;3.53;;;2.15;;
10481;SDS011;5288;42.334;23.876;2023-07-29T11:22:49;2.28;;;2.08;;
10481;SDS011;5288;42.334;23.876;2023-07-29T11:25:16;3.60;;;2.30;;
10481;SDS011;5288;42.334;23.876;2023-07-29T11:27:44;3.28;;;2.20;;
10481;SDS011;5288;42.334;23.876;2023-07-29T11:30:12;1.92;;;1.70;;
10481;SDS011;5288;42.334;23.876;2023-07-29T11:32:41;2.55;;;1.95;;
10481;SDS011;5288;42.334;23.876;2023-07-29T11:35:11;2.22;;;1.90;;
10481;SDS011;5288;42.334;23.876;2023-07-29T11:37:40;2.63;;;2.10;;
10481;SDS011;5288;42.334;23.876;2023-07-29T11:40:08;1.90;;;1.80;;
10481;SDS011;5288;42.334;23.876;2023-07-29T11:42:36;2.25;;;2.03;;
10481;SDS011;5288;42.334;23.876;2023-07-29T11:45:04;4.10;;;1.70;;
10481;SDS011;5288;42.334;23.876;2023-07-29T11:47:33;2.05;;;1.85;;
10481;SDS011;5288;42.334;23.876;2023-07-29T11:50:02;2.40;;;2.20;;
10481;SDS011;5288;42.334;23.876;2023-07-29T11:52:31;1.60;;;1.50;;
10481;SDS011;5288;42.334;23.876;2023-07-29T11:55:00;2.60;;;1.92;;
10481;SDS011;5288;42.334;23.876;2023-07-29T11:57:28;3.55;;;1.90;;
10481;SDS011;5288;42.334;23.876;2023-07-29T11:59:55;4.85;;;1.60;;
10481;SDS011;5288;42.334;23.876;2023-07-29T12:02:23;1.98;;;1.77;;
10481;SDS011;5288;42.334;23.876;2023-07-29T12:04:50;1.80;;;1.70;;
10481;SDS011;5288;42.334;23.876;2023-07-29T12:07:18;2.40;;;1.70;;
10481;SDS011;5288;42.334;23.876;2023-07-29T12:09:47;2.10;;;1.90;;
10481;SDS011;5288;42.334;23.876;2023-07-29T12:12:15;2.10;;;1.85;;
10481;SDS011;5288;42.334;23.876;2023-07-29T12:14:43;1.85;;;1.75;;
10481;SDS011;5288;42.334;23.876;2023-07-29T12:17:12;2.10;;;1.88;;
10481;SDS011;5288;42.334;23.876;2023-07-29T12:19:39;3.42;;;1.85;;
10481;SDS011;5288;42.334;23.876;2023-07-29T12:22:09;3.13;;;1.70;;
10481;SDS011;5288;42.334;23.876;2023-07-29T12:24:38;2.00;;;1.80;;
10481;SDS011;5288;42.334;23.876;2023-07-29T12:27:09;1.60;;;1.50;;
10481;SDS011;5288;42.334;23.876;2023-07-29T12:29:39;1.55;;;1.45;;
10481;SDS011;5288;42.334;23.876;2023-07-29T12:32:07;1.65;;;1.55;;
10481;SDS011;5288;42.334;23.876;2023-07-29T12:34:36;3.28;;;1.90;;
10481;SDS011;5288;42.334;23.876;2023-07-29T12:37:04;3.38;;;1.70;;
10481;SDS011;5288;42.334;23.876;2023-07-29T12:39:33;3.88;;;1.70;;
10481;SDS011;5288;42.334;23.876;2023-07-29T12:42:03;4.65;;;1.63;;
10481;SDS011;5288;42.334;23.876;2023-07-29T12:44:32;1.73;;;1.63;;
10481;SDS011;5288;42.334;23.876;2023-07-29T12:47:01;1.60;;;1.30;;
10481;SDS011;5288;42.334;23.876;2023-07-29T12:49:29;1.70;;;1.60;;
10481;SDS011;5288;42.334;23.876;2023-07-29T12:51:56;4.15;;;1.67;;
10481;SDS011;5288;42.334;23.876;2023-07-29T12:54:23;1.55;;;1.42;;
10481;SDS011;5288;42.334;23.876;2023-07-29T12:56:50;2.30;;;1.73;;
10481;SDS011;5288;42.334;23.876;2023-07-29T12:59:18;1.75;;;1.65;;
10481;SDS011;5288;42.334;23.876;2023-07-29T13:01:46;2.35;;;2.15;;
10481;SDS011;5288;42.334;23.876;2023-07-29T13:04:13;2.33;;;1.60;;
10481;SDS011;5288;42.334;23.876;2023-07-29T13:06:40;2.13;;;1.70;;
10481;SDS011;5288;42.334;23.876;2023-07-29T13:09:07;1.50;;;1.40;;
10481;SDS011;5288;42.334;23.876;2023-07-29T13:11:34;5.45;;;1.95;;
10481;SDS011;5288;42.334;23.876;2023-07-29T13:14:01;1.67;;;1.55;;
10481;SDS011;5288;42.334;23.876;2023-07-29T13:16:28;2.25;;;1.63;;
10481;SDS011;5288;42.334;23.876;2023-07-29T13:18:56;1.63;;;1.52;;
10481;SDS011;5288;42.334;23.876;2023-07-29T13:21:23;1.98;;;1.88;;
10481;SDS011;5288;42.334;23.876;2023-07-29T13:23:50;1.67;;;1.58;;
10481;SDS011;5288;42.334;23.876;2023-07-29T13:26:18;2.20;;;2.00;;
10481;SDS011;5288;42.334;23.876;2023-07-29T13:28:45;2.35;;;1.98;;
10481;SDS011;5288;42.334;23.876;2023-07-29T13:31:12;1.95;;;1.85;;
10481;SDS011;5288;42.334;23.876;2023-07-29T13:33:39;4.53;;;2.10;;
10481;SDS011;5288;42.334;23.876;2023-07-29T13:36:07;1.80;;;1.70;;
10481;SDS011;5288;42.334;23.876;2023-07-29T13:38:34;1.75;;;1.65;;
10481;SDS011;5288;42.334;23.876;2023-07-29T13:41:01;2.47;;;1.60;;
10481;SDS011;5288;42.334;23.876;2023-07-29T13:43:28;3.90;;;1.70;;
10481;SDS011;5288;42.334;23.876;2023-07-29T13:45:55;1.73;;;1.63;;
10481;SDS011;5288;42.334;23.876;2023-07-29T13:48:22;2.03;;;1.92;;
10481;SDS011;5288;42.334;23.876;2023-07-29T13:50:50;4.60;;;1.90;;
10481;SDS011;5288;42.334;23.876;2023-07-29T13:53:18;2.80;;;1.98;;
10481;SDS011;5288;42.334;23.876;2023-07-29T13:55:45;2.10;;;1.90;;
10481;SDS011;5288;42.334;23.876;2023-07-29T13:58:12;3.08;;;2.08;;
10481;SDS011;5288;42.334;23.876;2023-07-29T14:00:39;1.77;;;1.67;;
10481;SDS011;5288;42.334;23.876;2023-07-29T14:03:06;4.10;;;1.70;;
10481;SDS011;5288;42.334;23.876;2023-07-29T14:05:33;1.58;;;1.42;;
10481;SDS011;5288;42.334;23.876;2023-07-29T14:08:00;2.00;;;1.67;;
10481;SDS011;5288;42.334;23.876;2023-07-29T14:10:28;2.53;;;2.25;;
10481;SDS011;5288;42.334;23.876;2023-07-29T14:12:55;2.15;;;1.83;;
10481;SDS011;5288;42.334;23.876;2023-07-29T14:15:22;4.28;;;1.98;;
10481;SDS011;5288;42.334;23.876;2023-07-29T14:17:49;3.28;;;1.60;;
10481;SDS011;5288;42.334;23.876;2023-07-29T14:20:16;3.28;;;1.75;;
10481;SDS011;5288;42.334;23.876;2023-07-29T14:22:44;2.83;;;1.65;;
10481;SDS011;5288;42.334;23.876;2023-07-29T14:25:11;2.38;;;1.98;;
10481;SDS011;5288;42.334;23.876;2023-07-29T14:27:40;4.70;;;3.10;;
10481;SDS011;5288;42.334;23.876;2023-07-29T14:30:07;14.57;;;3.28;;
10481;SDS011;5288;42.334;23.876;2023-07-29T14:32:34;6.60;;;1.83;;
10481;SDS011;5288;42.334;23.876;2023-07-29T14:35:02;3.75;;;1.65;;
10481;SDS011;5288;42.334;23.876;2023-07-29T14:37:30;2.65;;;2.15;;
10481;SDS011;5288;42.334;23.876;2023-07-29T14:39:57;1.75;;;1.65;;
10481;SDS011;5288;42.334;23.876;2023-07-29T14:42:24;2.00;;;1.83;;
10481;SDS011;5288;42.334;23.876;2023-07-29T14:44:52;2.58;;;1.52;;
10481;SDS011;5288;42.334;23.876;2023-07-29T14:47:20;2.35;;;2.15;;
10481;SDS011;5288;42.334;23.876;2023-07-29T14:49:47;2.72;;;1.85;;
10481;SDS011;5288;42.334;23.876;2023-07-29T14:52:15;2.35;;;2.13;;
10481;SDS011;5288;42.334;23.876;2023-07-29T14:54:42;2.05;;;1.80;;
10481;SDS011;5288;42.334;23.876;2023-07-29T14:57:09;1.88;;;1.75;;